Emerald Leader — C6WP4 — position and weather

sailwx.info

Track history (hours):
 
Tides and Currents Weather Stations Pressure Air Temp Water Temp Dewpoint Dewpoint Depression Visibility Wind Speed Wind Dir Waves Ship Positions

Emerald Leader

Last reported at 2016-Sep-25 11:33 UTC. Time now 2016-Sep-25 12:22 UTC.
Position N 51°16' W 004°19'.

Length 176 m; draft 8.5 m.

Type: Cargo ship. MMSI: 308688000.

Date/timePositionNaut miles runAvg speedWind from/ knotsBaromVisibWave heightAir tempDewpointWater temp
2016-Sep-25 11:33N 51°16' W 004°19'1111.2
2016-Sep-25 10:34N 51°08' W 004°32'1110.9
2016-Sep-25 09:33N 51°01' W 004°45'20 9.8
2016-Sep-25 07:34N 50°48' W 005°08'28 9.2
2016-Sep-25 04:33N 50°30' W 005°41'39 5.5
2016-Sep-24 21:28N 49°52' W 005°25'2010.4
2016-Sep-24 19:33N 49°52' W 004°54'1413.6
2016-Sep-24 18:32N 49°54' W 004°32'1513.7
2016-Sep-24 17:24N 49°55' W 004°08'1213.8
2016-Sep-24 16:33N 49°56' W 003°51'2914.4
2016-Sep-24 14:33N 49°58' W 003°06'3114.3
2016-Sep-24 12:22N 50°06' W 002°19'4214.8
2016-Sep-24 09:33N 50°17' W 001°16'9615.8
2016-Sep-24 03:29N 50°51' E 001°05'1414.6
2016-Sep-24 02:33N 51°00' E 001°20'1616.1
2016-Sep-24 01:34N 51°10' E 001°41'1717.4
2016-Sep-24 00:33N 51°24' E 001°58'48 9.6
2016-Sep-23 19:33N 51°18' E 003°14'0 0.0
2016-Sep-23 17:33N 51°18' E 003°14'0 0.0
2016-Sep-23 16:33N 51°18' E 003°14'0 0.0
2016-Sep-23 15:33N 51°18' E 003°14'0 0.0
2016-Sep-23 13:33N 51°18' E 003°14'0 0.0
2016-Sep-23 09:33N 51°18' E 003°14'0 0.0
2016-Sep-23 06:33N 51°18' E 003°14'0 0.0
2016-Sep-23 04:33N 51°18' E 003°14'0 0.0
2016-Sep-23 03:33N 51°18' E 003°14'0 0.0
2016-Sep-23 02:33N 51°18' E 003°14'0 0.0
2016-Sep-23 01:33N 51°18' E 003°14'0 0.0
2016-Sep-23 00:33N 51°18' E 003°14'0 0.0
2016-Sep-22 23:33N 51°18' E 003°14'1 0.3
2016-Sep-22 20:33N 51°19' E 003°13'0 0.0
2016-Sep-22 12:33N 51°19' E 003°13'0 0.0
2016-Sep-22 04:33N 51°19' E 003°13'0 0.0
2016-Sep-22 03:33N 51°19' E 003°13'4 1.4
2016-Sep-22 00:34N 51°23' E 003°10'1212.1
2016-Sep-21 23:34N 51°25' E 002°51'7 6.9
2016-Sep-21 22:33N 51°29' E 002°42'15 4.9
2016-Sep-21 19:33N 51°44' E 002°45'14214.2
2016-Sep-21 09:33N 53°36' E 005°09'1414.2
2016-Sep-21 08:33N 53°40' E 005°31'4815.8
2016-Sep-21 05:33N 53°53' E 006°49'3215.7
2016-Sep-21 03:33N 53°57' E 007°42'1515.1
2016-Sep-21 02:34N 53°50' E 008°04'24 2.6
2016-Sep-20 17:31N 53°35' E 008°34'0 0.0
2016-Sep-20 14:31N 53°35' E 008°34'0 0.0
2016-Sep-20 13:31N 53°35' E 008°34'0 0.0
2016-Sep-20 10:31N 53°35' E 008°34'0 0.0
2016-Sep-20 08:31N 53°35' E 008°34'0 0.0
2016-Sep-20 07:31N 53°35' E 008°34'0 0.0
2016-Sep-20 06:31N 53°35' E 008°34'0 0.1
2016-Sep-20 02:31N 53°34' E 008°33'3612.2
2016-Sep-19 23:34N 53°54' E 007°41'14 3.6
2016-Sep-19 19:33N 53°52' E 007°17'9 9.1
2016-Sep-19 18:33N 53°50' E 007°02'18 9.0
2016-Sep-19 16:33N 53°47' E 006°32'19 9.4
2016-Sep-19 14:33N 53°41' E 006°02'9 8.9
2016-Sep-19 13:33N 53°38' E 005°47'9 9.3
2016-Sep-19 12:33N 53°35' E 005°33'9 9.5
2016-Sep-19 11:34N 53°32' E 005°17'4912.3
2016-Sep-19 07:33N 52°57' E 004°20'1616.5
2016-Sep-19 06:33N 52°43' E 004°05'7117.2
2016-Sep-19 02:27N 51°52' E 002°45'3317.3
2016-Sep-19 00:34N 51°27' E 002°12'12413.7
2016-Sep-18 15:31N 50°14' W 000°26'9014.9
2016-Sep-18 09:29N 49°50' W 002°40'12417.2
2016-Sep-18 02:17N 48°50' W 005°26'  
Track history (hours):
 
Tides and Currents Weather Stations Pressure Air Temp Water Temp Dewpoint Dewpoint Depression Visibility Wind Speed Wind Dir Waves Ship Positions

Emerald Leader

Last reported at 2016-Sep-25 11:33 UTC. Time now 2016-Sep-25 12:22 UTC.
Position N 51°16' W 004°19'.

Length 176 m; draft 8.5 m.

Type: Cargo ship. MMSI: 308688000.

Date/timePositionNaut miles runAvg speedWind from/ knotsBaromVisibWave heightAir tempDewpointWater temp
2016-Sep-25 11:33N 51°16' W 004°19'1111.2
2016-Sep-25 10:34N 51°08' W 004°32'1110.9
2016-Sep-25 09:33N 51°01' W 004°45'20 9.8
2016-Sep-25 07:34N 50°48' W 005°08'28 9.2
2016-Sep-25 04:33N 50°30' W 005°41'39 5.5
2016-Sep-24 21:28N 49°52' W 005°25'2010.4
2016-Sep-24 19:33N 49°52' W 004°54'1413.6
2016-Sep-24 18:32N 49°54' W 004°32'1513.7
2016-Sep-24 17:24N 49°55' W 004°08'1213.8
2016-Sep-24 16:33N 49°56' W 003°51'2914.4
2016-Sep-24 14:33N 49°58' W 003°06'3114.3
2016-Sep-24 12:22N 50°06' W 002°19'4214.8
2016-Sep-24 09:33N 50°17' W 001°16'9615.8
2016-Sep-24 03:29N 50°51' E 001°05'1414.6
2016-Sep-24 02:33N 51°00' E 001°20'1616.1
2016-Sep-24 01:34N 51°10' E 001°41'1717.4
2016-Sep-24 00:33N 51°24' E 001°58'48 9.6
2016-Sep-23 19:33N 51°18' E 003°14'0 0.0
2016-Sep-23 17:33N 51°18' E 003°14'0 0.0
2016-Sep-23 16:33N 51°18' E 003°14'0 0.0
2016-Sep-23 15:33N 51°18' E 003°14'0 0.0
2016-Sep-23 13:33N 51°18' E 003°14'0 0.0
2016-Sep-23 09:33N 51°18' E 003°14'0 0.0
2016-Sep-23 06:33N 51°18' E 003°14'0 0.0
2016-Sep-23 04:33N 51°18' E 003°14'0 0.0
2016-Sep-23 03:33N 51°18' E 003°14'0 0.0
2016-Sep-23 02:33N 51°18' E 003°14'0 0.0
2016-Sep-23 01:33N 51°18' E 003°14'0 0.0
2016-Sep-23 00:33N 51°18' E 003°14'0 0.0
2016-Sep-22 23:33N 51°18' E 003°14'1 0.3
2016-Sep-22 20:33N 51°19' E 003°13'0 0.0
2016-Sep-22 12:33N 51°19' E 003°13'0 0.0
2016-Sep-22 04:33N 51°19' E 003°13'0 0.0
2016-Sep-22 03:33N 51°19' E 003°13'4 1.4
2016-Sep-22 00:34N 51°23' E 003°10'1212.1
2016-Sep-21 23:34N 51°25' E 002°51'7 6.9
2016-Sep-21 22:33N 51°29' E 002°42'15 4.9
2016-Sep-21 19:33N 51°44' E 002°45'14214.2
2016-Sep-21 09:33N 53°36' E 005°09'1414.2
2016-Sep-21 08:33N 53°40' E 005°31'4815.8
2016-Sep-21 05:33N 53°53' E 006°49'3215.7
2016-Sep-21 03:33N 53°57' E 007°42'1515.1
2016-Sep-21 02:34N 53°50' E 008°04'24 2.6
2016-Sep-20 17:31N 53°35' E 008°34'0 0.0
2016-Sep-20 14:31N 53°35' E 008°34'0 0.0
2016-Sep-20 13:31N 53°35' E 008°34'0 0.0
2016-Sep-20 10:31N 53°35' E 008°34'0 0.0
2016-Sep-20 08:31N 53°35' E 008°34'0 0.0
2016-Sep-20 07:31N 53°35' E 008°34'0 0.0
2016-Sep-20 06:31N 53°35' E 008°34'0 0.1
2016-Sep-20 02:31N 53°34' E 008°33'3612.2
2016-Sep-19 23:34N 53°54' E 007°41'14 3.6
2016-Sep-19 19:33N 53°52' E 007°17'9 9.1
2016-Sep-19 18:33N 53°50' E 007°02'18 9.0
2016-Sep-19 16:33N 53°47' E 006°32'19 9.4
2016-Sep-19 14:33N 53°41' E 006°02'9 8.9
2016-Sep-19 13:33N 53°38' E 005°47'9 9.3
2016-Sep-19 12:33N 53°35' E 005°33'9 9.5
2016-Sep-19 11:34N 53°32' E 005°17'4912.3
2016-Sep-19 07:33N 52°57' E 004°20'1616.5
2016-Sep-19 06:33N 52°43' E 004°05'7117.2
2016-Sep-19 02:27N 51°52' E 002°45'3317.3
2016-Sep-19 00:34N 51°27' E 002°12'12413.7
2016-Sep-18 15:31N 50°14' W 000°26'9014.9
2016-Sep-18 09:29N 49°50' W 002°40'12417.2
2016-Sep-18 02:17N 48°50' W 005°26'  

Dump ship's entire track history